sensor_id;sensor_type;location;lat;lon;timestamp;P1;durP1;ratioP1;P2;durP2;ratioP2
74168;SDS011;62523;53.336;83.690;2023-08-30T00:04:11;2.85;;;2.58;;
74168;SDS011;62523;53.336;83.690;2023-08-30T00:09:13;11.17;;;2.67;;
74168;SDS011;62523;53.336;83.690;2023-08-30T00:14:15;9.70;;;1.83;;
74168;SDS011;62523;53.336;83.690;2023-08-30T00:19:16;16.35;;;2.55;;
74168;SDS011;62523;53.336;83.690;2023-08-30T00:24:18;10.68;;;2.45;;
74168;SDS011;62523;53.336;83.690;2023-08-30T00:29:19;13.65;;;3.47;;
74168;SDS011;62523;53.336;83.690;2023-08-30T00:34:21;8.95;;;2.60;;
74168;SDS011;62523;53.336;83.690;2023-08-30T00:39:23;3.30;;;2.65;;
74168;SDS011;62523;53.336;83.690;2023-08-30T00:44:24;7.97;;;2.13;;
74168;SDS011;62523;53.336;83.690;2023-08-30T00:49:26;4.05;;;2.28;;
74168;SDS011;62523;53.336;83.690;2023-08-30T00:54:30;11.95;;;2.85;;
74168;SDS011;62523;53.336;83.690;2023-08-30T00:59:32;10.95;;;3.22;;
74168;SDS011;62523;53.336;83.690;2023-08-30T01:04:34;8.75;;;2.10;;
74168;SDS011;62523;53.336;83.690;2023-08-30T01:09:36;5.13;;;1.58;;
74168;SDS011;62523;53.336;83.690;2023-08-30T01:14:45;7.13;;;2.78;;
74168;SDS011;62523;53.336;83.690;2023-08-30T01:19:53;5.25;;;2.95;;
74168;SDS011;62523;53.336;83.690;2023-08-30T01:30:22;2.30;;;2.00;;
74168;SDS011;62523;53.336;83.690;2023-08-30T01:35:27;6.45;;;1.83;;
74168;SDS011;62523;53.336;83.690;2023-08-30T01:40:35;7.55;;;3.42;;
74168;SDS011;62523;53.336;83.690;2023-08-30T01:45:39;14.52;;;2.50;;
74168;SDS011;62523;53.336;83.690;2023-08-30T01:50:43;13.18;;;3.33;;
74168;SDS011;62523;53.336;83.690;2023-08-30T01:55:45;5.38;;;2.33;;
74168;SDS011;62523;53.336;83.690;2023-08-30T02:00:47;4.30;;;2.70;;
74168;SDS011;62523;53.336;83.690;2023-08-30T02:11:19;12.12;;;2.63;;
74168;SDS011;62523;53.336;83.690;2023-08-30T02:16:25;11.33;;;2.87;;
74168;SDS011;62523;53.336;83.690;2023-08-30T02:21:28;8.80;;;2.83;;
74168;SDS011;62523;53.336;83.690;2023-08-30T02:26:30;3.63;;;1.60;;
74168;SDS011;62523;53.336;83.690;2023-08-30T02:31:32;12.68;;;2.50;;
74168;SDS011;62523;53.336;83.690;2023-08-30T02:36:33;4.85;;;2.10;;
74168;SDS011;62523;53.336;83.690;2023-08-30T02:41:35;6.38;;;1.85;;
74168;SDS011;62523;53.336;83.690;2023-08-30T02:46:37;2.75;;;1.90;;
74168;SDS011;62523;53.336;83.690;2023-08-30T02:51:43;3.83;;;1.90;;
74168;SDS011;62523;53.336;83.690;2023-08-30T02:56:45;7.82;;;1.65;;
74168;SDS011;62523;53.336;83.690;2023-08-30T03:01:46;4.32;;;1.60;;
74168;SDS011;62523;53.336;83.690;2023-08-30T03:06:50;19.40;;;2.83;;
74168;SDS011;62523;53.336;83.690;2023-08-30T03:11:52;14.27;;;2.17;;
74168;SDS011;62523;53.336;83.690;2023-08-30T03:16:54;6.97;;;1.63;;
74168;SDS011;62523;53.336;83.690;2023-08-30T03:21:55;14.27;;;3.45;;
74168;SDS011;62523;53.336;83.690;2023-08-30T03:26:58;4.25;;;2.08;;
74168;SDS011;62523;53.336;83.690;2023-08-30T03:32:00;5.93;;;1.88;;
74168;SDS011;62523;53.336;83.690;2023-08-30T03:37:05;11.57;;;2.55;;
74168;SDS011;62523;53.336;83.690;2023-08-30T03:42:07;10.88;;;3.22;;
74168;SDS011;62523;53.336;83.690;2023-08-30T03:47:09;3.58;;;2.63;;
74168;SDS011;62523;53.336;83.690;2023-08-30T03:52:10;5.22;;;3.20;;
74168;SDS011;62523;53.336;83.690;2023-08-30T03:57:14;7.90;;;3.43;;
74168;SDS011;62523;53.336;83.690;2023-08-30T04:02:15;2.28;;;2.08;;
74168;SDS011;62523;53.336;83.690;2023-08-30T04:07:17;8.07;;;2.25;;
74168;SDS011;62523;53.336;83.690;2023-08-30T04:12:18;5.97;;;2.67;;
74168;SDS011;62523;53.336;83.690;2023-08-30T04:17:20;24.90;;;4.32;;
74168;SDS011;62523;53.336;83.690;2023-08-30T04:22:21;8.55;;;3.58;;
74168;SDS011;62523;53.336;83.690;2023-08-30T04:27:23;6.18;;;2.90;;
74168;SDS011;62523;53.336;83.690;2023-08-30T04:32:26;15.57;;;3.53;;
74168;SDS011;62523;53.336;83.690;2023-08-30T04:37:29;16.83;;;2.42;;
74168;SDS011;62523;53.336;83.690;2023-08-30T04:42:34;8.35;;;2.53;;
74168;SDS011;62523;53.336;83.690;2023-08-30T04:47:36;6.22;;;1.92;;
74168;SDS011;62523;53.336;83.690;2023-08-30T04:52:38;7.70;;;2.70;;
74168;SDS011;62523;53.336;83.690;2023-08-30T04:57:44;8.13;;;2.90;;
74168;SDS011;62523;53.336;83.690;2023-08-30T05:02:48;5.75;;;2.90;;
74168;SDS011;62523;53.336;83.690;2023-08-30T05:07:50;2.88;;;2.00;;
74168;SDS011;62523;53.336;83.690;2023-08-30T05:12:52;22.92;;;1.58;;
74168;SDS011;62523;53.336;83.690;2023-08-30T05:17:53;3.10;;;2.55;;
74168;SDS011;62523;53.336;83.690;2023-08-30T05:22:55;3.47;;;2.28;;
74168;SDS011;62523;53.336;83.690;2023-08-30T05:27:58;9.43;;;3.00;;
74168;SDS011;62523;53.336;83.690;2023-08-30T05:32:59;2.85;;;1.98;;
74168;SDS011;62523;53.336;83.690;2023-08-30T05:38:23;5.35;;;2.22;;
74168;SDS011;62523;53.336;83.690;2023-08-30T05:43:35;13.23;;;3.40;;
74168;SDS011;62523;53.336;83.690;2023-08-30T05:48:37;12.00;;;2.83;;
74168;SDS011;62523;53.336;83.690;2023-08-30T05:53:39;6.05;;;2.20;;
74168;SDS011;62523;53.336;83.690;2023-08-30T05:58:40;6.93;;;2.65;;
74168;SDS011;62523;53.336;83.690;2023-08-30T06:03:42;7.10;;;2.53;;
74168;SDS011;62523;53.336;83.690;2023-08-30T06:08:43;4.78;;;2.60;;
74168;SDS011;62523;53.336;83.690;2023-08-30T06:13:45;10.18;;;2.70;;
74168;SDS011;62523;53.336;83.690;2023-08-30T06:18:49;5.63;;;2.47;;
74168;SDS011;62523;53.336;83.690;2023-08-30T06:23:50;7.00;;;3.55;;
74168;SDS011;62523;53.336;83.690;2023-08-30T06:28:53;11.02;;;2.38;;
74168;SDS011;62523;53.336;83.690;2023-08-30T06:33:54;8.88;;;2.95;;
74168;SDS011;62523;53.336;83.690;2023-08-30T06:38:56;11.85;;;2.97;;
74168;SDS011;62523;53.336;83.690;2023-08-30T06:43:58;7.45;;;2.67;;
74168;SDS011;62523;53.336;83.690;2023-08-30T06:48:59;4.60;;;3.15;;
74168;SDS011;62523;53.336;83.690;2023-08-30T06:54:01;3.95;;;2.67;;
74168;SDS011;62523;53.336;83.690;2023-08-30T06:59:03;4.43;;;2.60;;
74168;SDS011;62523;53.336;83.690;2023-08-30T07:04:05;9.38;;;2.72;;
74168;SDS011;62523;53.336;83.690;2023-08-30T07:09:06;8.00;;;2.33;;
74168;SDS011;62523;53.336;83.690;2023-08-30T07:14:08;2.45;;;2.10;;
74168;SDS011;62523;53.336;83.690;2023-08-30T07:19:10;4.65;;;2.70;;
74168;SDS011;62523;53.336;83.690;2023-08-30T07:24:12;3.95;;;3.08;;
74168;SDS011;62523;53.336;83.690;2023-08-30T07:29:17;17.40;;;3.50;;
74168;SDS011;62523;53.336;83.690;2023-08-30T07:34:19;2.37;;;1.97;;
74168;SDS011;62523;53.336;83.690;2023-08-30T07:39:20;6.88;;;2.17;;
74168;SDS011;62523;53.336;83.690;2023-08-30T07:44:22;8.95;;;3.40;;
74168;SDS011;62523;53.336;83.690;2023-08-30T07:49:23;6.93;;;2.53;;
74168;SDS011;62523;53.336;83.690;2023-08-30T07:54:28;8.88;;;3.67;;
74168;SDS011;62523;53.336;83.690;2023-08-30T07:59:34;12.00;;;3.15;;
74168;SDS011;62523;53.336;83.690;2023-08-30T08:04:37;3.53;;;2.77;;
74168;SDS011;62523;53.336;83.690;2023-08-30T08:09:39;13.38;;;3.35;;
74168;SDS011;62523;53.336;83.690;2023-08-30T08:14:40;10.18;;;4.03;;
74168;SDS011;62523;53.336;83.690;2023-08-30T08:19:42;4.88;;;3.33;;
74168;SDS011;62523;53.336;83.690;2023-08-30T08:24:44;8.57;;;2.92;;
74168;SDS011;62523;53.336;83.690;2023-08-30T08:29:48;6.10;;;2.83;;
74168;SDS011;62523;53.336;83.690;2023-08-30T08:34:51;5.47;;;3.13;;
74168;SDS011;62523;53.336;83.690;2023-08-30T08:39:53;6.75;;;3.40;;
74168;SDS011;62523;53.336;83.690;2023-08-30T08:44:55;4.13;;;2.85;;
74168;SDS011;62523;53.336;83.690;2023-08-30T08:49:59;10.35;;;3.95;;
74168;SDS011;62523;53.336;83.690;2023-08-30T08:55:06;4.05;;;2.80;;
74168;SDS011;62523;53.336;83.690;2023-08-30T09:00:08;4.15;;;3.05;;
74168;SDS011;62523;53.336;83.690;2023-08-30T09:05:10;7.93;;;2.53;;
74168;SDS011;62523;53.336;83.690;2023-08-30T09:10:12;12.38;;;3.63;;
74168;SDS011;62523;53.336;83.690;2023-08-30T09:15:14;5.55;;;3.22;;
74168;SDS011;62523;53.336;83.690;2023-08-30T09:20:16;6.45;;;3.40;;
74168;SDS011;62523;53.336;83.690;2023-08-30T09:25:23;6.07;;;2.88;;
74168;SDS011;62523;53.336;83.690;2023-08-30T09:30:26;12.07;;;4.53;;
74168;SDS011;62523;53.336;83.690;2023-08-30T09:35:28;6.28;;;2.92;;
74168;SDS011;62523;53.336;83.690;2023-08-30T09:40:30;10.33;;;3.90;;
74168;SDS011;62523;53.336;83.690;2023-08-30T09:45:31;6.63;;;4.93;;
74168;SDS011;62523;53.336;83.690;2023-08-30T09:50:34;10.93;;;3.17;;
74168;SDS011;62523;53.336;83.690;2023-08-30T09:55:37;13.55;;;2.90;;
74168;SDS011;62523;53.336;83.690;2023-08-30T10:00:41;3.30;;;2.58;;
74168;SDS011;62523;53.336;83.690;2023-08-30T10:05:44;4.00;;;2.90;;
74168;SDS011;62523;53.336;83.690;2023-08-30T10:10:46;11.27;;;3.25;;
74168;SDS011;62523;53.336;83.690;2023-08-30T10:15:48;5.95;;;2.97;;
74168;SDS011;62523;53.336;83.690;2023-08-30T10:20:54;4.37;;;2.80;;
74168;SDS011;62523;53.336;83.690;2023-08-30T10:25:56;4.32;;;2.92;;
74168;SDS011;62523;53.336;83.690;2023-08-30T10:30:59;8.85;;;3.90;;
74168;SDS011;62523;53.336;83.690;2023-08-30T10:36:04;4.97;;;2.60;;
74168;SDS011;62523;53.336;83.690;2023-08-30T10:41:20;6.62;;;3.92;;
74168;SDS011;62523;53.336;83.690;2023-08-30T10:46:33;9.52;;;3.15;;
74168;SDS011;62523;53.336;83.690;2023-08-30T10:51:39;14.63;;;2.50;;
74168;SDS011;62523;53.336;83.690;2023-08-30T10:56:54;10.38;;;4.18;;
74168;SDS011;62523;53.336;83.690;2023-08-30T11:02:00;12.77;;;6.90;;
74168;SDS011;62523;53.336;83.690;2023-08-30T11:07:05;13.38;;;4.95;;
74168;SDS011;62523;53.336;83.690;2023-08-30T11:12:08;12.95;;;3.70;;
74168;SDS011;62523;53.336;83.690;2023-08-30T11:17:09;11.20;;;3.92;;
74168;SDS011;62523;53.336;83.690;2023-08-30T11:22:14;12.02;;;3.40;;
74168;SDS011;62523;53.336;83.690;2023-08-30T11:27:17;6.43;;;3.58;;
74168;SDS011;62523;53.336;83.690;2023-08-30T11:32:19;13.82;;;5.20;;
74168;SDS011;62523;53.336;83.690;2023-08-30T11:37:21;8.15;;;3.92;;
74168;SDS011;62523;53.336;83.690;2023-08-30T11:42:23;11.52;;;4.43;;
74168;SDS011;62523;53.336;83.690;2023-08-30T11:47:25;11.38;;;3.53;;
74168;SDS011;62523;53.336;83.690;2023-08-30T11:52:27;9.85;;;3.45;;
74168;SDS011;62523;53.336;83.690;2023-08-30T11:57:32;4.25;;;3.03;;
74168;SDS011;62523;53.336;83.690;2023-08-30T12:02:35;5.15;;;3.50;;
74168;SDS011;62523;53.336;83.690;2023-08-30T12:07:37;15.60;;;4.20;;
74168;SDS011;62523;53.336;83.690;2023-08-30T12:12:44;9.52;;;3.75;;
74168;SDS011;62523;53.336;83.690;2023-08-30T12:17:46;44.75;;;12.85;;
74168;SDS011;62523;53.336;83.690;2023-08-30T12:22:48;9.82;;;4.55;;
74168;SDS011;62523;53.336;83.690;2023-08-30T12:27:51;20.30;;;7.70;;
74168;SDS011;62523;53.336;83.690;2023-08-30T12:32:59;11.32;;;8.38;;
74168;SDS011;62523;53.336;83.690;2023-08-30T12:38:04;13.02;;;11.65;;
74168;SDS011;62523;53.336;83.690;2023-08-30T12:43:06;15.63;;;8.07;;
74168;SDS011;62523;53.336;83.690;2023-08-30T12:48:08;20.02;;;10.15;;
74168;SDS011;62523;53.336;83.690;2023-08-30T12:53:11;16.42;;;9.18;;
74168;SDS011;62523;53.336;83.690;2023-08-30T12:58:13;11.65;;;6.18;;
74168;SDS011;62523;53.336;83.690;2023-08-30T13:03:15;12.73;;;7.25;;
74168;SDS011;62523;53.336;83.690;2023-08-30T13:08:16;16.47;;;6.13;;
74168;SDS011;62523;53.336;83.690;2023-08-30T13:13:18;8.75;;;5.07;;
74168;SDS011;62523;53.336;83.690;2023-08-30T13:18:22;14.63;;;8.57;;
74168;SDS011;62523;53.336;83.690;2023-08-30T13:23:23;11.73;;;8.57;;
74168;SDS011;62523;53.336;83.690;2023-08-30T13:28:25;14.93;;;4.28;;
74168;SDS011;62523;53.336;83.690;2023-08-30T13:33:26;12.07;;;5.23;;
74168;SDS011;62523;53.336;83.690;2023-08-30T13:38:28;12.52;;;5.38;;
74168;SDS011;62523;53.336;83.690;2023-08-30T13:43:29;13.55;;;5.15;;
74168;SDS011;62523;53.336;83.690;2023-08-30T13:48:32;9.13;;;8.07;;
74168;SDS011;62523;53.336;83.690;2023-08-30T13:53:33;9.40;;;7.43;;
74168;SDS011;62523;53.336;83.690;2023-08-30T13:58:35;20.48;;;11.43;;
74168;SDS011;62523;53.336;83.690;2023-08-30T14:03:38;14.30;;;10.32;;
74168;SDS011;62523;53.336;83.690;2023-08-30T14:08:39;24.60;;;15.07;;
74168;SDS011;62523;53.336;83.690;2023-08-30T14:13:41;30.70;;;11.63;;
74168;SDS011;62523;53.336;83.690;2023-08-30T14:18:43;32.10;;;16.80;;
74168;SDS011;62523;53.336;83.690;2023-08-30T14:23:44;25.50;;;16.58;;
74168;SDS011;62523;53.336;83.690;2023-08-30T14:28:46;17.73;;;13.90;;
74168;SDS011;62523;53.336;83.690;2023-08-30T14:33:48;18.77;;;15.45;;
74168;SDS011;62523;53.336;83.690;2023-08-30T14:38:50;26.02;;;18.27;;
74168;SDS011;62523;53.336;83.690;2023-08-30T14:43:51;35.00;;;14.18;;
74168;SDS011;62523;53.336;83.690;2023-08-30T14:48:53;25.52;;;18.80;;
74168;SDS011;62523;53.336;83.690;2023-08-30T14:53:54;14.68;;;9.27;;
74168;SDS011;62523;53.336;83.690;2023-08-30T14:58:56;10.30;;;7.78;;
74168;SDS011;62523;53.336;83.690;2023-08-30T15:03:58;8.80;;;4.35;;
74168;SDS011;62523;53.336;83.690;2023-08-30T15:08:59;11.43;;;5.77;;
74168;SDS011;62523;53.336;83.690;2023-08-30T15:14:02;13.93;;;8.25;;
74168;SDS011;62523;53.336;83.690;2023-08-30T15:19:04;10.45;;;5.03;;
74168;SDS011;62523;53.336;83.690;2023-08-30T15:24:05;8.30;;;4.53;;
74168;SDS011;62523;53.336;83.690;2023-08-30T15:29:07;24.97;;;5.37;;
74168;SDS011;62523;53.336;83.690;2023-08-30T15:34:09;11.68;;;6.50;;
74168;SDS011;62523;53.336;83.690;2023-08-30T15:39:11;13.68;;;6.40;;
74168;SDS011;62523;53.336;83.690;2023-08-30T15:44:15;21.08;;;6.70;;
74168;SDS011;62523;53.336;83.690;2023-08-30T15:49:17;14.65;;;8.73;;
74168;SDS011;62523;53.336;83.690;2023-08-30T15:54:18;24.20;;;14.38;;
74168;SDS011;62523;53.336;83.690;2023-08-30T15:59:20;28.63;;;12.30;;
74168;SDS011;62523;53.336;83.690;2023-08-30T16:04:21;21.02;;;8.05;;
74168;SDS011;62523;53.336;83.690;2023-08-30T16:09:23;16.63;;;7.47;;
74168;SDS011;62523;53.336;83.690;2023-08-30T16:14:25;14.48;;;9.38;;
74168;SDS011;62523;53.336;83.690;2023-08-30T16:19:26;29.65;;;16.85;;
74168;SDS011;62523;53.336;83.690;2023-08-30T16:24:28;30.35;;;19.75;;
74168;SDS011;62523;53.336;83.690;2023-08-30T16:29:29;20.83;;;11.38;;
74168;SDS011;62523;53.336;83.690;2023-08-30T16:34:32;13.00;;;9.70;;
74168;SDS011;62523;53.336;83.690;2023-08-30T16:39:33;15.30;;;6.10;;
74168;SDS011;62523;53.336;83.690;2023-08-30T16:44:35;34.50;;;21.17;;
74168;SDS011;62523;53.336;83.690;2023-08-30T16:49:37;24.73;;;19.85;;
74168;SDS011;62523;53.336;83.690;2023-08-30T16:54:39;28.23;;;18.23;;
74168;SDS011;62523;53.336;83.690;2023-08-30T16:59:40;30.35;;;11.65;;
74168;SDS011;62523;53.336;83.690;2023-08-30T17:04:42;18.10;;;8.57;;
74168;SDS011;62523;53.336;83.690;2023-08-30T17:09:44;9.88;;;6.05;;
74168;SDS011;62523;53.336;83.690;2023-08-30T17:14:45;19.30;;;10.77;;
74168;SDS011;62523;53.336;83.690;2023-08-30T17:19:47;26.63;;;12.20;;
74168;SDS011;62523;53.336;83.690;2023-08-30T17:24:48;22.88;;;18.42;;
74168;SDS011;62523;53.336;83.690;2023-08-30T17:29:50;32.38;;;17.88;;
74168;SDS011;62523;53.336;83.690;2023-08-30T17:34:51;25.58;;;16.80;;
74168;SDS011;62523;53.336;83.690;2023-08-30T17:39:56;21.83;;;11.68;;
74168;SDS011;62523;53.336;83.690;2023-08-30T17:44:57;17.10;;;12.80;;
74168;SDS011;62523;53.336;83.690;2023-08-30T17:49:59;11.07;;;8.53;;
74168;SDS011;62523;53.336;83.690;2023-08-30T17:55:03;11.70;;;10.27;;
74168;SDS011;62523;53.336;83.690;2023-08-30T18:00:05;29.08;;;13.90;;
74168;SDS011;62523;53.336;83.690;2023-08-30T18:05:13;20.42;;;12.80;;
74168;SDS011;62523;53.336;83.690;2023-08-30T18:10:15;13.77;;;12.38;;
74168;SDS011;62523;53.336;83.690;2023-08-30T18:15:17;23.37;;;10.97;;
74168;SDS011;62523;53.336;83.690;2023-08-30T18:20:19;25.10;;;16.67;;
74168;SDS011;62523;53.336;83.690;2023-08-30T18:25:20;22.30;;;17.27;;
74168;SDS011;62523;53.336;83.690;2023-08-30T18:30:22;41.05;;;18.58;;
74168;SDS011;62523;53.336;83.690;2023-08-30T18:35:24;40.60;;;14.82;;
74168;SDS011;62523;53.336;83.690;2023-08-30T18:40:27;16.47;;;8.97;;
74168;SDS011;62523;53.336;83.690;2023-08-30T18:45:28;9.93;;;7.35;;
74168;SDS011;62523;53.336;83.690;2023-08-30T18:50:31;11.68;;;7.75;;
74168;SDS011;62523;53.336;83.690;2023-08-30T18:55:33;14.13;;;11.18;;
74168;SDS011;62523;53.336;83.690;2023-08-30T19:00:35;17.75;;;6.38;;
74168;SDS011;62523;53.336;83.690;2023-08-30T19:05:37;6.63;;;5.55;;
74168;SDS011;62523;53.336;83.690;2023-08-30T19:10:40;14.30;;;7.63;;
74168;SDS011;62523;53.336;83.690;2023-08-30T19:15:41;14.90;;;9.50;;
74168;SDS011;62523;53.336;83.690;2023-08-30T19:20:43;15.87;;;12.50;;
74168;SDS011;62523;53.336;83.690;2023-08-30T19:25:47;17.38;;;8.32;;
74168;SDS011;62523;53.336;83.690;2023-08-30T19:30:52;10.48;;;8.35;;
74168;SDS011;62523;53.336;83.690;2023-08-30T19:35:54;11.48;;;7.07;;
74168;SDS011;62523;53.336;83.690;2023-08-30T19:40:55;9.98;;;6.00;;
74168;SDS011;62523;53.336;83.690;2023-08-30T19:46:01;8.77;;;7.00;;
74168;SDS011;62523;53.336;83.690;2023-08-30T19:51:03;8.05;;;5.90;;
74168;SDS011;62523;53.336;83.690;2023-08-30T19:56:05;7.77;;;5.10;;
74168;SDS011;62523;53.336;83.690;2023-08-30T20:01:16;8.01;;;5.16;;
74168;SDS011;62523;53.336;83.690;2023-08-30T20:06:20;5.74;;;5.04;;
74168;SDS011;62523;53.336;83.690;2023-08-30T20:11:22;15.13;;;6.10;;
74168;SDS011;62523;53.336;83.690;2023-08-30T20:16:24;8.20;;;4.80;;
74168;SDS011;62523;53.336;83.690;2023-08-30T20:21:27;6.45;;;4.93;;
74168;SDS011;62523;53.336;83.690;2023-08-30T20:26:28;15.52;;;5.22;;
74168;SDS011;62523;53.336;83.690;2023-08-30T20:31:30;13.70;;;6.17;;
74168;SDS011;62523;53.336;83.690;2023-08-30T20:36:33;11.10;;;5.13;;
74168;SDS011;62523;53.336;83.690;2023-08-30T20:41:34;21.00;;;5.43;;
74168;SDS011;62523;53.336;83.690;2023-08-30T20:46:36;22.58;;;5.78;;
74168;SDS011;62523;53.336;83.690;2023-08-30T20:51:38;10.30;;;5.32;;
74168;SDS011;62523;53.336;83.690;2023-08-30T20:56:39;10.35;;;5.78;;
74168;SDS011;62523;53.336;83.690;2023-08-30T21:01:41;9.07;;;6.05;;
74168;SDS011;62523;53.336;83.690;2023-08-30T21:06:42;12.10;;;5.78;;
74168;SDS011;62523;53.336;83.690;2023-08-30T21:11:44;8.68;;;5.15;;
74168;SDS011;62523;53.336;83.690;2023-08-30T21:16:46;7.47;;;5.97;;
74168;SDS011;62523;53.336;83.690;2023-08-30T21:21:47;11.55;;;5.72;;
74168;SDS011;62523;53.336;83.690;2023-08-30T21:26:49;13.48;;;7.07;;
74168;SDS011;62523;53.336;83.690;2023-08-30T21:31:50;7.70;;;6.13;;
74168;SDS011;62523;53.336;83.690;2023-08-30T21:36:52;24.00;;;6.45;;
74168;SDS011;62523;53.336;83.690;2023-08-30T21:41:54;10.95;;;6.13;;
74168;SDS011;62523;53.336;83.690;2023-08-30T21:46:56;7.07;;;5.70;;
74168;SDS011;62523;53.336;83.690;2023-08-30T21:51:57;10.13;;;6.28;;
74168;SDS011;62523;53.336;83.690;2023-08-30T21:56:59;9.75;;;6.32;;
74168;SDS011;62523;53.336;83.690;2023-08-30T22:02:00;23.35;;;6.75;;
74168;SDS011;62523;53.336;83.690;2023-08-30T22:07:05;14.77;;;6.90;;
74168;SDS011;62523;53.336;83.690;2023-08-30T22:12:08;14.23;;;8.10;;
74168;SDS011;62523;53.336;83.690;2023-08-30T22:17:09;23.10;;;7.40;;
74168;SDS011;62523;53.336;83.690;2023-08-30T22:22:12;15.73;;;8.33;;
74168;SDS011;62523;53.336;83.690;2023-08-30T22:27:14;17.73;;;8.43;;
74168;SDS011;62523;53.336;83.690;2023-08-30T22:32:15;10.50;;;7.03;;
74168;SDS011;62523;53.336;83.690;2023-08-30T22:37:17;13.68;;;6.78;;
74168;SDS011;62523;53.336;83.690;2023-08-30T22:42:19;14.57;;;7.30;;
74168;SDS011;62523;53.336;83.690;2023-08-30T22:47:22;11.20;;;7.32;;
74168;SDS011;62523;53.336;83.690;2023-08-30T22:52:23;16.33;;;7.00;;
74168;SDS011;62523;53.336;83.690;2023-08-30T22:57:25;15.15;;;6.47;;
74168;SDS011;62523;53.336;83.690;2023-08-30T23:02:27;17.25;;;7.45;;
74168;SDS011;62523;53.336;83.690;2023-08-30T23:07:28;10.23;;;6.13;;
74168;SDS011;62523;53.336;83.690;2023-08-30T23:12:30;17.23;;;6.18;;
74168;SDS011;62523;53.336;83.690;2023-08-30T23:17:41;13.68;;;7.60;;
74168;SDS011;62523;53.336;83.690;2023-08-30T23:22:44;14.23;;;8.23;;
74168;SDS011;62523;53.336;83.690;2023-08-30T23:27:45;9.33;;;7.23;;
74168;SDS011;62523;53.336;83.690;2023-08-30T23:32:47;11.57;;;6.07;;
74168;SDS011;62523;53.336;83.690;2023-08-30T23:37:49;16.70;;;7.07;;
74168;SDS011;62523;53.336;83.690;2023-08-30T23:42:52;22.87;;;6.90;;
74168;SDS011;62523;53.336;83.690;2023-08-30T23:47:54;18.23;;;7.78;;
74168;SDS011;62523;53.336;83.690;2023-08-30T23:52:55;12.85;;;8.43;;
74168;SDS011;62523;53.336;83.690;2023-08-30T23:57:57;17.65;;;8.23;;
